createdAt,value
2018-07-11T00:01:45.029Z,4.10
2018-07-11T00:04:12.989Z,3.93
2018-07-11T00:06:40.617Z,3.83
2018-07-11T00:09:08.237Z,3.50
2018-07-11T00:11:35.828Z,3.87
2018-07-11T00:14:03.529Z,3.70
2018-07-11T00:16:31.113Z,3.97
2018-07-11T00:18:58.732Z,3.47
2018-07-11T00:21:26.406Z,4.03
2018-07-11T00:23:54.237Z,3.70
2018-07-11T00:26:22.352Z,3.97
2018-07-11T00:28:50.015Z,3.83
2018-07-11T00:31:17.657Z,4.10
2018-07-11T00:33:45.272Z,3.83
2018-07-11T00:36:14.634Z,3.70
2018-07-11T00:38:42.813Z,4.17
2018-07-11T00:41:10.497Z,4.03
2018-07-11T00:43:38.209Z,4.03
2018-07-11T00:46:05.910Z,3.90
2018-07-11T00:48:34.193Z,3.90
2018-07-11T00:51:02.373Z,4.10
2018-07-11T00:53:31.189Z,4.20
2018-07-11T00:55:59.442Z,4.07
2018-07-11T00:58:30.088Z,4.80
2018-07-11T01:01:16.175Z,4.53
2018-07-11T01:03:53.022Z,4.33
2018-07-11T01:06:21.626Z,4.40
2018-07-11T01:09:04.110Z,4.87
2018-07-11T01:11:32.726Z,4.23
2018-07-11T01:14:00.484Z,4.70
2018-07-11T01:16:28.858Z,4.40
2018-07-11T01:19:05.583Z,4.13
2018-07-11T01:21:33.737Z,4.33
2018-07-11T01:24:01.371Z,4.40
2018-07-11T01:26:34.041Z,4.70
2018-07-11T01:29:01.989Z,4.43
2018-07-11T01:31:29.657Z,4.50
2018-07-11T01:33:57.714Z,4.30
2018-07-11T01:36:25.873Z,4.40
2018-07-11T01:38:53.866Z,4.80
2018-07-11T01:41:21.566Z,4.30
2018-07-11T01:43:49.268Z,5.37
2018-07-11T01:46:16.954Z,4.80
2018-07-11T01:48:45.121Z,5.17
2018-07-11T01:51:12.805Z,5.20
2018-07-11T01:53:40.501Z,4.70
2018-07-11T01:56:08.346Z,5.00
2018-07-11T01:58:36.345Z,5.10
2018-07-11T02:01:04.697Z,5.13
2018-07-11T02:03:32.765Z,5.00
2018-07-11T02:06:00.545Z,4.97
2018-07-11T02:08:28.821Z,4.50
2018-07-11T02:10:57.094Z,5.20
2018-07-11T02:13:25.152Z,4.97
2018-07-11T02:15:53.041Z,5.07
2018-07-11T02:18:25.365Z,5.20
2018-07-11T02:20:53.617Z,5.80
2018-07-11T02:23:21.465Z,5.00
2018-07-11T02:25:49.270Z,5.70
2018-07-11T02:28:16.953Z,5.23
2018-07-11T02:30:44.713Z,5.03
2018-07-11T02:33:12.377Z,5.30
2018-07-11T02:35:40.365Z,5.27
2018-07-11T02:38:08.027Z,4.93
2018-07-11T02:40:35.685Z,5.10
2018-07-11T02:43:03.326Z,5.73
2018-07-11T02:45:31.062Z,5.67
2018-07-11T02:47:58.777Z,6.43
2018-07-11T02:50:26.389Z,6.30
2018-07-11T02:52:54.166Z,5.83
2018-07-11T02:55:21.829Z,5.27
2018-07-11T02:57:49.509Z,5.30
2018-07-11T03:00:17.421Z,5.67
2018-07-11T03:02:45.590Z,5.70
2018-07-11T03:05:13.216Z,6.03
2018-07-11T03:07:40.980Z,6.03
2018-07-11T03:10:08.621Z,5.80
2018-07-11T03:12:36.229Z,5.83
2018-07-11T03:15:03.926Z,5.90
2018-07-11T03:17:32.241Z,5.73
2018-07-11T03:19:59.826Z,6.03
2018-07-11T03:22:27.453Z,5.67
2018-07-11T03:24:55.176Z,6.10
2018-07-11T03:27:22.863Z,5.90
2018-07-11T03:29:50.472Z,6.27
2018-07-11T03:32:18.750Z,6.17
2018-07-11T03:34:46.921Z,6.43
2018-07-11T03:37:15.281Z,6.30
2018-07-11T03:39:43.409Z,6.27
2018-07-11T03:42:11.069Z,6.30
2018-07-11T03:44:38.976Z,7.07
2018-07-11T03:47:06.644Z,6.30
2018-07-11T03:49:34.334Z,6.73
2018-07-11T03:52:02.990Z,7.33
2018-07-11T03:54:30.577Z,7.17
2018-07-11T03:56:58.067Z,6.37
2018-07-11T03:59:25.690Z,6.90
2018-07-11T04:01:53.257Z,7.37
2018-07-11T04:04:21.021Z,6.57
2018-07-11T04:06:48.608Z,6.90
2018-07-11T04:09:16.203Z,7.07
2018-07-11T04:11:43.786Z,7.03
2018-07-11T04:14:11.885Z,6.70
2018-07-11T04:16:39.739Z,7.00
2018-07-11T04:19:07.368Z,6.97
2018-07-11T04:21:35.137Z,7.13
2018-07-11T04:24:02.969Z,7.13
2018-07-11T04:26:30.553Z,7.13
2018-07-11T04:28:58.190Z,7.70
2018-07-11T04:31:25.828Z,6.87
2018-07-11T04:33:54.969Z,7.17
2018-07-11T04:36:22.668Z,7.40
2018-07-11T04:38:50.426Z,8.67
2018-07-11T04:41:18.020Z,7.53
2018-07-11T04:43:45.709Z,7.83
2018-07-11T04:46:13.413Z,7.33
2018-07-11T04:48:41.339Z,7.67
2018-07-11T04:51:08.898Z,7.23
2018-07-11T04:53:36.565Z,7.47
2018-07-11T04:56:04.777Z,7.33
2018-07-11T04:58:32.841Z,8.13
2018-07-11T05:01:00.655Z,8.23
2018-07-11T05:03:28.538Z,7.33
2018-07-11T05:05:56.242Z,7.80
2018-07-11T05:08:24.405Z,7.70
2018-07-11T05:10:52.117Z,8.27
2018-07-11T05:13:19.861Z,8.17
2018-07-11T05:15:47.946Z,7.80
2018-07-11T05:18:15.658Z,7.90
2018-07-11T05:20:44.017Z,8.30
2018-07-11T05:23:15.748Z,8.77
2018-07-11T05:25:43.551Z,9.03
2018-07-11T05:28:11.097Z,8.00
2018-07-11T05:30:38.675Z,7.73
2018-07-11T05:33:06.282Z,8.03
2018-07-11T05:35:33.881Z,7.47
2018-07-11T05:38:02.770Z,8.63
2018-07-11T05:40:30.360Z,7.77
2018-07-11T05:42:57.923Z,15.73
2018-07-11T05:45:25.619Z,13.63
2018-07-11T05:47:53.422Z,20.57
2018-07-11T05:50:20.982Z,15.37
2018-07-11T05:52:48.626Z,8.87
2018-07-11T05:55:16.270Z,7.90
2018-07-11T05:57:43.906Z,8.50
2018-07-11T06:00:11.671Z,8.40
2018-07-11T06:02:39.305Z,8.10
2018-07-11T06:05:06.865Z,8.50
2018-07-11T06:07:35.308Z,8.60
2018-07-11T06:10:02.942Z,9.17
2018-07-11T06:12:30.507Z,9.37
2018-07-11T06:14:58.098Z,14.57
2018-07-11T06:17:25.714Z,31.47
2018-07-11T06:19:53.445Z,10.03
2018-07-11T06:22:21.027Z,9.60
2018-07-11T06:24:48.641Z,9.07
2018-07-11T06:27:16.257Z,10.77
2018-07-11T06:29:43.852Z,12.97
2018-07-11T06:32:11.395Z,12.27
2018-07-11T06:34:38.981Z,15.60
2018-07-11T06:37:06.790Z,14.60
2018-07-11T06:39:34.394Z,13.90
2018-07-11T06:42:02.002Z,15.00
2018-07-11T06:44:29.615Z,13.57
2018-07-11T06:46:57.258Z,15.00
2018-07-11T06:49:25.309Z,16.20
2018-07-11T06:51:52.907Z,18.60
2018-07-11T06:54:20.487Z,17.67
2018-07-11T06:56:48.028Z,40.03
2018-07-11T06:59:15.610Z,24.63
2018-07-11T07:01:43.334Z,18.63
2018-07-11T07:04:11.165Z,19.37
2018-07-11T07:06:38.817Z,29.50
2018-07-11T07:09:06.785Z,25.07
2018-07-11T07:11:34.465Z,18.00
2018-07-11T07:14:02.140Z,19.63
2018-07-11T07:16:29.990Z,19.50
2018-07-11T07:18:58.031Z,17.97
2018-07-11T07:21:25.601Z,18.07
2018-07-11T07:23:53.256Z,16.50
2018-07-11T07:26:21.280Z,16.43
2018-07-11T07:28:48.889Z,16.00
2018-07-11T07:31:16.465Z,15.77
2018-07-11T07:33:44.005Z,14.97
2018-07-11T07:36:11.677Z,16.10
2018-07-11T07:38:41.814Z,16.50
2018-07-11T07:41:09.852Z,15.47
2018-07-11T07:43:37.820Z,16.50
2018-07-11T07:46:05.501Z,17.93
2018-07-11T07:48:33.090Z,17.43
2018-07-11T07:51:00.733Z,16.80
2018-07-11T07:53:28.953Z,16.73
2018-07-11T07:55:59.921Z,16.53
2018-07-11T07:58:27.757Z,16.60
2018-07-11T08:00:55.378Z,17.63
2018-07-11T08:03:23.172Z,17.27
2018-07-11T08:05:50.761Z,16.97
2018-07-11T08:08:18.765Z,16.63
2018-07-11T08:10:46.398Z,16.87
2018-07-11T08:13:13.985Z,17.00
2018-07-11T08:15:42.165Z,17.30
2018-07-11T08:18:09.876Z,16.50
2018-07-11T08:20:37.466Z,16.23
2018-07-11T08:23:17.798Z,16.30
2018-07-11T08:25:58.961Z,16.43
2018-07-11T08:28:47.557Z,15.83
2018-07-11T08:31:27.334Z,15.17
2018-07-11T08:34:09.594Z,19.07
2018-07-11T08:36:56.446Z,47.73
2018-07-11T08:39:35.175Z,16.37
2018-07-11T08:44:21.082Z,15.50
2018-07-11T08:47:29.538Z,16.47
2018-07-11T08:50:24.113Z,15.87
2018-07-11T08:53:04.938Z,17.13
2018-07-11T08:56:15.566Z,15.57
2018-07-11T09:00:00.402Z,12.90
2018-07-11T09:02:39.367Z,12.33
2018-07-11T09:06:29.911Z,11.67
2018-07-11T09:09:13.173Z,11.07
2018-07-11T09:12:00.790Z,11.00
2018-07-11T09:14:42.234Z,10.83
2018-07-11T09:17:21.266Z,10.40
2018-07-11T09:20:02.236Z,10.67
2018-07-11T09:22:40.966Z,10.47
2018-07-11T09:25:08.532Z,10.77
2018-07-11T09:27:36.158Z,9.87
2018-07-11T09:30:03.822Z,9.97
2018-07-11T09:32:31.534Z,13.53
2018-07-11T09:34:59.159Z,11.83
2018-07-11T09:37:26.858Z,11.60
2018-07-11T09:39:54.477Z,11.93
2018-07-11T09:42:22.112Z,9.70
2018-07-11T09:44:49.941Z,8.87
2018-07-11T09:47:23.258Z,8.27
2018-07-11T09:49:50.921Z,8.03
2018-07-11T09:52:18.730Z,7.33
2018-07-11T09:54:46.817Z,7.77
2018-07-11T09:57:15.418Z,7.53
2018-07-11T09:59:43.626Z,8.30
2018-07-11T10:02:12.149Z,8.33
2018-07-11T10:04:39.784Z,7.20
2018-07-11T10:07:08.067Z,7.43
2018-07-11T10:09:36.449Z,7.30
2018-07-11T10:12:04.261Z,5.90
2018-07-11T10:14:33.449Z,6.67
2018-07-11T10:17:01.105Z,5.37
2018-07-11T10:19:28.723Z,5.47
2018-07-11T10:21:56.515Z,5.33
2018-07-11T10:24:24.090Z,6.67
2018-07-11T10:26:51.873Z,5.00
2018-07-11T10:29:19.881Z,5.83
2018-07-11T10:31:47.549Z,6.00
2018-07-11T10:34:15.116Z,5.60
2018-07-11T10:36:42.745Z,4.90
2018-07-11T10:39:10.459Z,6.23
2018-07-11T10:41:37.965Z,6.03
2018-07-11T10:44:05.646Z,4.90
2018-07-11T10:46:33.448Z,5.33
2018-07-11T10:49:01.193Z,4.20
2018-07-11T10:51:28.869Z,4.47
2018-07-11T10:53:56.482Z,4.40
2018-07-11T10:56:23.992Z,4.60
2018-07-11T10:58:51.825Z,4.40
2018-07-11T11:01:19.566Z,4.00
2018-07-11T11:03:47.277Z,4.50
2018-07-11T11:06:14.879Z,3.83
2018-07-11T11:08:42.446Z,3.70
2018-07-11T11:11:10.011Z,3.87
2018-07-11T11:13:38.305Z,3.67
2018-07-11T11:16:05.915Z,3.30
2018-07-11T11:18:33.473Z,3.10
2018-07-11T11:21:01.250Z,3.37
2018-07-11T11:23:28.841Z,3.30
2018-07-11T11:25:57.295Z,3.37
2018-07-11T11:28:24.909Z,2.90
2018-07-11T11:30:52.523Z,2.70
2018-07-11T11:35:56.252Z,2.37
2018-07-11T11:38:23.881Z,2.60
2018-07-11T11:40:51.556Z,2.47
2018-07-11T11:43:19.169Z,2.17
2018-07-11T11:45:48.094Z,2.30
2018-07-11T11:48:15.682Z,2.30
2018-07-11T11:50:43.271Z,2.50
2018-07-11T11:53:10.882Z,2.63
2018-07-11T11:55:38.521Z,2.00
2018-07-11T11:58:06.213Z,2.30
2018-07-11T12:00:34.273Z,2.90
2018-07-11T12:03:01.870Z,5.50
2018-07-11T12:05:29.689Z,2.40
2018-07-11T12:07:58.065Z,2.70
2018-07-11T12:10:25.764Z,2.80
2018-07-11T12:12:53.461Z,4.07
2018-07-11T12:15:21.046Z,5.10
2018-07-11T12:17:48.676Z,3.37
2018-07-11T12:20:16.253Z,2.93
2018-07-11T12:22:44.141Z,2.30
2018-07-11T12:25:11.799Z,1.50
2018-07-11T12:27:40.181Z,2.00
2018-07-11T12:30:07.879Z,1.90
2018-07-11T12:32:35.532Z,4.73
2018-07-11T12:35:03.157Z,1.73
2018-07-11T12:37:30.873Z,1.67
2018-07-11T12:39:58.630Z,1.60
2018-07-11T12:42:26.381Z,1.70
2018-07-11T12:44:54.001Z,1.70
2018-07-11T12:47:27.418Z,1.40
2018-07-11T12:49:55.385Z,1.67
2018-07-11T12:52:23.045Z,1.63
2018-07-11T12:54:50.709Z,1.20
2018-07-11T12:57:20.812Z,1.60
2018-07-11T12:59:48.536Z,1.40
2018-07-11T13:02:16.194Z,1.60
2018-07-11T13:04:44.238Z,1.20
2018-07-11T13:07:12.030Z,1.40
2018-07-11T13:09:39.629Z,1.30
2018-07-11T13:12:07.332Z,1.40
2018-07-11T13:14:35.099Z,1.50
2018-07-11T13:17:02.730Z,1.77
2018-07-11T13:19:30.395Z,2.53
2018-07-11T13:21:58.869Z,1.97
2018-07-11T13:24:26.661Z,1.70
2018-07-11T13:26:54.241Z,2.40
2018-07-11T13:29:22.370Z,2.00
2018-07-11T13:31:49.961Z,2.10
2018-07-11T13:34:17.690Z,2.00
2018-07-11T13:36:45.297Z,2.50
2018-07-11T13:39:19.136Z,2.60
2018-07-11T13:41:47.489Z,2.27
2018-07-11T13:44:15.118Z,2.30
2018-07-11T13:46:42.719Z,1.80
2018-07-11T13:49:11.814Z,1.90
2018-07-11T13:51:39.774Z,1.97
2018-07-11T13:54:07.612Z,2.37
2018-07-11T13:56:35.701Z,2.20
2018-07-11T13:59:05.248Z,1.93
2018-07-11T14:01:33.357Z,2.33
2018-07-11T14:04:02.271Z,2.47
2018-07-11T14:06:30.023Z,2.23
2018-07-11T14:08:58.001Z,2.00
2018-07-11T14:11:25.814Z,1.93
2018-07-11T14:13:53.513Z,1.90
2018-07-11T14:16:21.621Z,1.83
2018-07-11T14:18:49.319Z,1.90
2018-07-11T14:21:16.937Z,1.93
2018-07-11T14:23:44.556Z,1.90
2018-07-11T14:26:14.018Z,1.80
2018-07-11T14:28:45.309Z,1.97
2018-07-11T14:31:13.173Z,1.93
2018-07-11T14:33:46.073Z,1.97
2018-07-11T14:36:13.706Z,1.80
2018-07-11T14:38:41.299Z,1.60
2018-07-11T14:41:08.929Z,1.80
2018-07-11T14:43:36.543Z,1.70
2018-07-11T14:46:04.252Z,1.70
2018-07-11T14:48:31.848Z,1.80
2018-07-11T14:50:59.714Z,2.00
2018-07-11T14:53:27.314Z,2.10
2018-07-11T14:55:54.976Z,2.00
2018-07-11T14:58:22.565Z,1.80
2018-07-11T15:00:50.257Z,2.07
2018-07-11T15:03:18.001Z,2.20
2018-07-11T15:05:45.676Z,1.97
2018-07-11T15:08:13.476Z,2.23
2018-07-11T15:10:41.080Z,1.93
2018-07-11T15:13:08.720Z,1.80
2018-07-11T15:15:36.420Z,2.13
2018-07-11T15:18:06.298Z,2.20
2018-07-11T15:20:34.445Z,2.27
2018-07-11T15:23:02.033Z,2.67
2018-07-11T15:25:29.661Z,2.30
2018-07-11T15:27:57.318Z,2.37
2018-07-11T15:30:24.947Z,2.77
2018-07-11T15:32:52.586Z,2.40
2018-07-11T15:35:20.365Z,2.50
2018-07-11T15:37:48.037Z,2.67
2018-07-11T15:40:15.769Z,3.13
2018-07-11T15:42:44.305Z,4.93
2018-07-11T15:45:12.490Z,6.50
2018-07-11T15:47:42.721Z,6.07
2018-07-11T15:50:10.274Z,6.77
2018-07-11T15:52:38.098Z,6.63
2018-07-11T15:55:05.677Z,6.67
2018-07-11T15:57:49.006Z,6.23
2018-07-11T16:00:20.409Z,6.60
2018-07-11T16:02:49.601Z,7.30
2018-07-11T16:05:19.505Z,7.10
2018-07-11T16:07:49.128Z,7.23
2018-07-11T16:10:19.511Z,6.50
2018-07-11T16:12:47.158Z,7.10
2018-07-11T16:15:14.886Z,6.77
2018-07-11T16:17:42.453Z,6.70
2018-07-11T16:20:10.014Z,7.10
2018-07-11T16:22:37.629Z,7.13
2018-07-11T16:25:05.729Z,7.50
2018-07-11T16:27:33.419Z,6.63
2018-07-11T16:30:01.065Z,6.90
2018-07-11T16:32:28.705Z,7.37
2018-07-11T16:34:56.321Z,7.57
2018-07-11T16:37:24.091Z,7.50
2018-07-11T16:39:51.798Z,6.67
2018-07-11T16:42:19.514Z,7.07
2018-07-11T16:44:47.677Z,7.17
2018-07-11T16:47:15.964Z,28.90
2018-07-11T16:49:43.577Z,13.60
2018-07-11T16:52:11.393Z,8.67
2018-07-11T16:54:39.121Z,7.20
2018-07-11T16:57:07.945Z,6.67
2018-07-11T16:59:48.498Z,6.53
2018-07-11T17:02:22.997Z,6.37
2018-07-11T17:04:52.784Z,5.87
2018-07-11T17:07:21.707Z,6.00
2018-07-11T17:09:50.673Z,6.40
2018-07-11T17:12:19.589Z,5.67
2018-07-11T17:14:47.805Z,5.97
2018-07-11T17:17:17.613Z,5.17
2018-07-11T17:20:15.729Z,5.63
2018-07-11T17:22:48.690Z,5.47
2018-07-11T17:25:19.352Z,5.13
2018-07-11T17:27:47.561Z,5.27
2018-07-11T17:30:15.685Z,4.60
2018-07-11T17:32:43.909Z,4.33
2018-07-11T17:35:11.533Z,4.83
2018-07-11T17:37:39.303Z,4.83
2018-07-11T17:40:09.146Z,6.50
2018-07-11T17:42:36.777Z,7.80
2018-07-11T17:45:17.429Z,8.13
2018-07-11T17:49:56.967Z,8.53
2018-07-11T17:52:25.359Z,20.70
2018-07-11T17:55:10.605Z,7.50
2018-07-11T17:57:43.493Z,7.50
2018-07-11T18:00:11.285Z,7.97
2018-07-11T18:04:49.034Z,8.50
2018-07-11T18:07:27.348Z,8.30
2018-07-11T18:10:00.708Z,8.40
2018-07-11T18:13:41.674Z,8.03
2018-07-11T18:16:45.785Z,8.30
2018-07-11T18:20:23.611Z,8.07
2018-07-11T18:22:54.030Z,7.10
2018-07-11T18:25:36.985Z,7.50
2018-07-11T18:28:15.589Z,7.50
2018-07-11T18:32:55.954Z,9.03
2018-07-11T18:35:38.582Z,15.87
2018-07-11T18:38:16.706Z,10.17
2018-07-11T18:41:00.683Z,9.20
2018-07-11T18:43:39.501Z,8.90
2018-07-11T18:47:19.957Z,8.57
2018-07-11T18:51:58.739Z,9.00
2018-07-11T18:55:40.617Z,8.40
2018-07-11T18:58:24.953Z,9.03
2018-07-11T19:01:35.715Z,8.90
2018-07-11T19:04:23.806Z,8.43
2018-07-11T19:07:02.593Z,8.37
2018-07-11T19:09:54.682Z,7.43
2018-07-11T19:12:30.173Z,7.40
2018-07-11T19:15:11.940Z,7.63
2018-07-11T19:19:52.805Z,7.67
2018-07-11T19:22:44.309Z,7.60
2018-07-11T19:25:19.982Z,8.20
2018-07-11T19:29:02.864Z,8.73
2018-07-11T19:31:43.184Z,9.10
2018-07-11T19:34:20.620Z,9.30
2018-07-11T19:36:56.697Z,9.10
2018-07-11T19:39:35.449Z,9.63
2018-07-11T19:42:43.402Z,9.97
2018-07-11T19:45:34.425Z,8.63
2018-07-11T19:48:09.784Z,10.27
2018-07-11T19:50:48.704Z,21.13
2018-07-11T19:53:29.309Z,26.27
2018-07-11T19:56:24.117Z,14.27
2018-07-11T19:58:51.673Z,13.80
2018-07-11T20:01:19.314Z,13.37
2018-07-11T20:03:46.998Z,12.97
2018-07-11T20:06:14.613Z,14.40
2018-07-11T20:08:42.456Z,13.23
2018-07-11T20:11:10.026Z,12.77
2018-07-11T20:13:37.672Z,15.23
2018-07-11T20:16:05.357Z,15.97
2018-07-11T20:18:32.921Z,13.37
2018-07-11T20:21:00.549Z,29.37
2018-07-11T20:23:28.782Z,14.50
2018-07-11T20:25:56.486Z,12.50
2018-07-11T20:28:24.319Z,13.50
2018-07-11T20:30:51.942Z,12.80
2018-07-11T20:33:19.566Z,12.77
2018-07-11T20:35:47.169Z,13.07
2018-07-11T20:38:14.801Z,12.47
2018-07-11T20:40:42.465Z,13.60
2018-07-11T20:43:10.054Z,12.53
2018-07-11T20:45:37.682Z,13.70
2018-07-11T20:48:05.318Z,13.70
2018-07-11T20:50:32.881Z,13.40
2018-07-11T20:53:00.564Z,13.13
2018-07-11T20:55:28.314Z,12.57
2018-07-11T20:58:07.463Z,12.50
2018-07-11T21:00:46.521Z,12.10
2018-07-11T21:03:44.897Z,12.20
2018-07-11T21:06:27.410Z,12.57
2018-07-11T21:09:06.503Z,12.30
2018-07-11T21:12:15.165Z,12.10
2018-07-11T21:16:54.832Z,12.00
2018-07-11T21:19:22.423Z,11.23
2018-07-11T21:21:49.982Z,10.73
2018-07-11T21:24:17.561Z,11.27
2018-07-11T21:26:45.129Z,11.20
2018-07-11T21:29:12.742Z,9.97
2018-07-11T21:31:40.281Z,9.93
2018-07-11T21:34:07.858Z,9.73
2018-07-11T21:36:35.622Z,9.10
2018-07-11T21:39:12.000Z,10.63
2018-07-11T21:41:39.747Z,9.40
2018-07-11T21:44:07.289Z,8.53
2018-07-11T21:46:35.399Z,8.40
2018-07-11T21:49:02.997Z,8.20
2018-07-11T21:51:30.645Z,8.73
2018-07-11T21:53:58.251Z,8.80
2018-07-11T21:56:26.245Z,8.87
2018-07-11T21:58:53.927Z,8.77
2018-07-11T22:01:21.637Z,8.83
2018-07-11T22:03:49.207Z,10.00
2018-07-11T22:06:16.848Z,9.87
2018-07-11T22:08:44.443Z,9.93
2018-07-11T22:11:12.196Z,10.23
2018-07-11T22:13:40.470Z,10.23
2018-07-11T22:16:08.166Z,9.87
2018-07-11T22:18:43.177Z,10.73
2018-07-11T22:21:10.643Z,10.63
2018-07-11T22:23:37.164Z,10.70
2018-07-11T22:26:03.716Z,10.60
2018-07-11T22:28:30.757Z,11.10
2018-07-11T22:30:57.299Z,10.97
2018-07-11T22:33:23.811Z,11.60
2018-07-11T22:35:50.533Z,11.20
2018-07-11T22:38:17.085Z,11.23
2018-07-11T22:40:44.143Z,11.40
2018-07-11T22:43:10.684Z,10.73
2018-07-11T22:45:37.197Z,11.17
2018-07-11T22:48:03.737Z,11.97
2018-07-11T22:50:30.520Z,11.90
2018-07-11T22:52:57.172Z,11.47
2018-07-11T22:55:23.788Z,11.80
2018-07-11T22:57:54.146Z,12.17
2018-07-11T23:00:20.647Z,12.40
2018-07-11T23:02:47.161Z,11.67
2018-07-11T23:05:13.663Z,11.47
2018-07-11T23:07:40.185Z,11.20
2018-07-11T23:10:06.733Z,12.67
2018-07-11T23:12:33.978Z,11.93
2018-07-11T23:15:00.498Z,11.97
2018-07-11T23:17:27.235Z,10.93
2018-07-11T23:19:53.747Z,12.30
2018-07-11T23:22:20.285Z,11.27
2018-07-11T23:24:46.824Z,11.37
2018-07-11T23:27:13.448Z,11.40
2018-07-11T23:29:39.929Z,11.77
2018-07-11T23:32:06.432Z,11.37
2018-07-11T23:34:32.965Z,11.27
2018-07-11T23:36:59.465Z,11.20
2018-07-11T23:39:25.990Z,10.97
2018-07-11T23:41:52.954Z,10.63
2018-07-11T23:44:19.538Z,11.30
2018-07-11T23:46:46.062Z,11.70
2018-07-11T23:49:12.596Z,11.30
2018-07-11T23:51:39.103Z,11.53
2018-07-11T23:54:05.622Z,11.50
2018-07-11T23:56:32.197Z,11.70
2018-07-11T23:58:58.720Z,11.37
